sensor_id;sensor_type;location;lat;lon;timestamp;P1;durP1;ratioP1;P2;durP2;ratioP2
44606;SDS011;30315;46.072;14.474;2022-08-14T00:01:43;4.38;;;4.07;;
44606;SDS011;30315;46.072;14.474;2022-08-14T00:04:20;4.15;;;3.80;;
44606;SDS011;30315;46.072;14.474;2022-08-14T00:07:07;3.42;;;3.10;;
44606;SDS011;30315;46.072;14.474;2022-08-14T00:09:36;4.22;;;3.55;;
44606;SDS011;30315;46.072;14.474;2022-08-14T00:12:20;3.75;;;3.50;;
44606;SDS011;30315;46.072;14.474;2022-08-14T00:14:50;3.65;;;3.45;;
44606;SDS011;30315;46.072;14.474;2022-08-14T00:17:21;4.38;;;3.75;;
44606;SDS011;30315;46.072;14.474;2022-08-14T00:19:48;3.85;;;3.28;;
44606;SDS011;30315;46.072;14.474;2022-08-14T00:22:17;4.20;;;3.92;;
44606;SDS011;30315;46.072;14.474;2022-08-14T00:25:06;3.80;;;3.50;;
44606;SDS011;30315;46.072;14.474;2022-08-14T00:27:35;3.67;;;3.47;;
44606;SDS011;30315;46.072;14.474;2022-08-14T00:30:07;4.10;;;3.80;;
44606;SDS011;30315;46.072;14.474;2022-08-14T00:32:39;4.10;;;3.80;;
44606;SDS011;30315;46.072;14.474;2022-08-14T00:35:21;4.63;;;4.00;;
44606;SDS011;30315;46.072;14.474;2022-08-14T00:38:09;4.45;;;4.10;;
44606;SDS011;30315;46.072;14.474;2022-08-14T00:40:36;4.00;;;3.70;;
44606;SDS011;30315;46.072;14.474;2022-08-14T00:43:05;4.20;;;3.90;;
44606;SDS011;30315;46.072;14.474;2022-08-14T00:45:33;4.85;;;4.45;;
44606;SDS011;30315;46.072;14.474;2022-08-14T00:48:01;4.45;;;3.75;;
44606;SDS011;30315;46.072;14.474;2022-08-14T00:50:28;5.13;;;3.97;;
44606;SDS011;30315;46.072;14.474;2022-08-14T00:52:56;4.28;;;4.07;;
44606;SDS011;30315;46.072;14.474;2022-08-14T00:55:27;4.50;;;3.88;;
44606;SDS011;30315;46.072;14.474;2022-08-14T00:57:57;4.53;;;4.13;;
44606;SDS011;30315;46.072;14.474;2022-08-14T01:00:44;4.03;;;3.72;;
44606;SDS011;30315;46.072;14.474;2022-08-14T01:03:22;3.70;;;3.40;;
44606;SDS011;30315;46.072;14.474;2022-08-14T01:05:56;4.18;;;3.88;;
44606;SDS011;30315;46.072;14.474;2022-08-14T01:08:26;3.60;;;3.40;;
44606;SDS011;30315;46.072;14.474;2022-08-14T01:11:15;3.95;;;3.53;;
44606;SDS011;30315;46.072;14.474;2022-08-14T01:13:45;6.05;;;3.47;;
44606;SDS011;30315;46.072;14.474;2022-08-14T01:16:21;3.55;;;3.28;;
44606;SDS011;30315;46.072;14.474;2022-08-14T01:18:56;3.42;;;3.22;;
44606;SDS011;30315;46.072;14.474;2022-08-14T01:21:45;4.10;;;3.80;;
44606;SDS011;30315;46.072;14.474;2022-08-14T01:24:19;4.05;;;3.80;;
44606;SDS011;30315;46.072;14.474;2022-08-14T01:26:59;3.70;;;3.50;;
44606;SDS011;30315;46.072;14.474;2022-08-14T01:29:28;9.73;;;3.92;;
44606;SDS011;30315;46.072;14.474;2022-08-14T01:32:16;4.13;;;3.72;;
44606;SDS011;30315;46.072;14.474;2022-08-14T01:34:52;3.70;;;3.30;;
44606;SDS011;30315;46.072;14.474;2022-08-14T01:37:42;5.75;;;3.55;;
44606;SDS011;30315;46.072;14.474;2022-08-14T01:43:12;3.97;;;3.30;;
44606;SDS011;30315;46.072;14.474;2022-08-14T01:45:47;3.38;;;3.17;;
44606;SDS011;30315;46.072;14.474;2022-08-14T01:48:31;6.70;;;3.65;;
44606;SDS011;30315;46.072;14.474;2022-08-14T01:51:02;4.15;;;3.50;;
44606;SDS011;30315;46.072;14.474;2022-08-14T01:53:46;3.83;;;3.30;;
44606;SDS011;30315;46.072;14.474;2022-08-14T01:56:26;3.78;;;3.40;;
44606;SDS011;30315;46.072;14.474;2022-08-14T01:59:05;4.00;;;3.70;;
44606;SDS011;30315;46.072;14.474;2022-08-14T02:01:47;4.20;;;3.88;;
44606;SDS011;30315;46.072;14.474;2022-08-14T02:04:29;3.67;;;3.08;;
44606;SDS011;30315;46.072;14.474;2022-08-14T02:07:18;3.83;;;3.63;;
44606;SDS011;30315;46.072;14.474;2022-08-14T02:10:06;5.13;;;3.65;;
44606;SDS011;30315;46.072;14.474;2022-08-14T02:15:30;4.13;;;3.75;;
44606;SDS011;30315;46.072;14.474;2022-08-14T02:17:57;4.63;;;3.72;;
44606;SDS011;30315;46.072;14.474;2022-08-14T02:20:28;4.22;;;3.30;;
44606;SDS011;30315;46.072;14.474;2022-08-14T02:23:01;4.03;;;3.80;;
44606;SDS011;30315;46.072;14.474;2022-08-14T02:25:29;6.25;;;3.78;;
44606;SDS011;30315;46.072;14.474;2022-08-14T02:27:56;4.03;;;3.72;;
44606;SDS011;30315;46.072;14.474;2022-08-14T02:30:43;4.03;;;3.70;;
44606;SDS011;30315;46.072;14.474;2022-08-14T02:33:11;4.10;;;3.67;;
44606;SDS011;30315;46.072;14.474;2022-08-14T02:35:40;3.58;;;3.35;;
44606;SDS011;30315;46.072;14.474;2022-08-14T02:38:08;3.90;;;3.70;;
44606;SDS011;30315;46.072;14.474;2022-08-14T02:40:56;6.60;;;3.70;;
44606;SDS011;30315;46.072;14.474;2022-08-14T02:43:24;3.97;;;3.65;;
44606;SDS011;30315;46.072;14.474;2022-08-14T02:46:03;6.07;;;3.87;;
44606;SDS011;30315;46.072;14.474;2022-08-14T02:48:38;3.97;;;3.65;;
44606;SDS011;30315;46.072;14.474;2022-08-14T02:51:26;3.97;;;3.57;;
44606;SDS011;30315;46.072;14.474;2022-08-14T02:53:55;3.65;;;3.40;;
44606;SDS011;30315;46.072;14.474;2022-08-14T02:56:23;3.65;;;3.45;;
44606;SDS011;30315;46.072;14.474;2022-08-14T02:59:12;3.60;;;3.40;;
44606;SDS011;30315;46.072;14.474;2022-08-14T03:01:43;4.00;;;3.70;;
44606;SDS011;30315;46.072;14.474;2022-08-14T03:04:20;3.90;;;3.70;;
44606;SDS011;30315;46.072;14.474;2022-08-14T03:06:47;5.47;;;3.47;;
44606;SDS011;30315;46.072;14.474;2022-08-14T03:09:33;4.57;;;4.18;;
44606;SDS011;30315;46.072;14.474;2022-08-14T03:12:22;5.00;;;3.90;;
44606;SDS011;30315;46.072;14.474;2022-08-14T03:14:57;4.03;;;3.83;;
44606;SDS011;30315;46.072;14.474;2022-08-14T03:17:24;3.72;;;3.42;;
44606;SDS011;30315;46.072;14.474;2022-08-14T03:19:57;5.20;;;4.90;;
44606;SDS011;30315;46.072;14.474;2022-08-14T03:22:25;5.93;;;5.38;;
44606;SDS011;30315;46.072;14.474;2022-08-14T03:24:55;4.85;;;4.47;;
44606;SDS011;30315;46.072;14.474;2022-08-14T03:27:22;4.28;;;3.97;;
44606;SDS011;30315;46.072;14.474;2022-08-14T03:30:00;4.13;;;3.80;;
44606;SDS011;30315;46.072;14.474;2022-08-14T03:32:31;3.72;;;3.50;;
44606;SDS011;30315;46.072;14.474;2022-08-14T03:34:59;4.18;;;3.88;;
44606;SDS011;30315;46.072;14.474;2022-08-14T03:37:34;3.88;;;3.60;;
44606;SDS011;30315;46.072;14.474;2022-08-14T03:40:21;3.70;;;3.50;;
44606;SDS011;30315;46.072;14.474;2022-08-14T03:42:50;4.20;;;3.83;;
44606;SDS011;30315;46.072;14.474;2022-08-14T03:45:17;3.78;;;3.58;;
44606;SDS011;30315;46.072;14.474;2022-08-14T03:48:09;6.90;;;4.22;;
44606;SDS011;30315;46.072;14.474;2022-08-14T03:50:56;5.20;;;3.58;;
44606;SDS011;30315;46.072;14.474;2022-08-14T03:53:26;4.00;;;3.70;;
44606;SDS011;30315;46.072;14.474;2022-08-14T03:58:24;4.82;;;4.43;;
44606;SDS011;30315;46.072;14.474;2022-08-14T04:01:00;4.40;;;4.10;;
44606;SDS011;30315;46.072;14.474;2022-08-14T04:03:27;4.88;;;4.47;;
44606;SDS011;30315;46.072;14.474;2022-08-14T04:05:55;5.45;;;4.95;;
44606;SDS011;30315;46.072;14.474;2022-08-14T04:08:23;7.50;;;5.43;;
44606;SDS011;30315;46.072;14.474;2022-08-14T04:10:57;6.65;;;5.78;;
44606;SDS011;30315;46.072;14.474;2022-08-14T04:13:27;6.05;;;5.65;;
44606;SDS011;30315;46.072;14.474;2022-08-14T04:15:59;5.72;;;5.32;;
44606;SDS011;30315;46.072;14.474;2022-08-14T04:18:39;7.03;;;6.43;;
44606;SDS011;30315;46.072;14.474;2022-08-14T04:21:09;7.10;;;6.60;;
44606;SDS011;30315;46.072;14.474;2022-08-14T04:23:37;6.85;;;6.35;;
44606;SDS011;30315;46.072;14.474;2022-08-14T04:26:06;7.78;;;7.18;;
44606;SDS011;30315;46.072;14.474;2022-08-14T04:28:41;9.45;;;7.70;;
44606;SDS011;30315;46.072;14.474;2022-08-14T04:31:29;7.70;;;7.20;;
44606;SDS011;30315;46.072;14.474;2022-08-14T04:34:16;8.50;;;7.72;;
44606;SDS011;30315;46.072;14.474;2022-08-14T04:36:49;9.38;;;8.55;;
44606;SDS011;30315;46.072;14.474;2022-08-14T04:39:36;9.75;;;8.80;;
44606;SDS011;30315;46.072;14.474;2022-08-14T04:42:23;8.88;;;8.07;;
44606;SDS011;30315;46.072;14.474;2022-08-14T04:45:17;7.95;;;7.25;;
44606;SDS011;30315;46.072;14.474;2022-08-14T04:47:45;8.43;;;7.60;;
44606;SDS011;30315;46.072;14.474;2022-08-14T04:50:31;7.63;;;6.75;;
44606;SDS011;30315;46.072;14.474;2022-08-14T04:53:14;7.85;;;5.72;;
44606;SDS011;30315;46.072;14.474;2022-08-14T04:55:49;7.43;;;5.60;;
44606;SDS011;30315;46.072;14.474;2022-08-14T04:58:17;8.90;;;6.60;;
44606;SDS011;30315;46.072;14.474;2022-08-14T05:01:00;6.40;;;5.78;;
44606;SDS011;30315;46.072;14.474;2022-08-14T05:03:38;9.07;;;6.85;;
44606;SDS011;30315;46.072;14.474;2022-08-14T05:06:09;8.40;;;7.45;;
44606;SDS011;30315;46.072;14.474;2022-08-14T05:08:57;8.02;;;7.22;;
44606;SDS011;30315;46.072;14.474;2022-08-14T05:11:25;8.90;;;7.68;;
44606;SDS011;30315;46.072;14.474;2022-08-14T05:13:53;8.57;;;7.68;;
44606;SDS011;30315;46.072;14.474;2022-08-14T05:16:41;9.20;;;8.38;;
44606;SDS011;30315;46.072;14.474;2022-08-14T05:19:12;9.02;;;8.18;;
44606;SDS011;30315;46.072;14.474;2022-08-14T05:21:50;9.75;;;8.75;;
44606;SDS011;30315;46.072;14.474;2022-08-14T05:24:34;9.15;;;8.45;;
44606;SDS011;30315;46.072;14.474;2022-08-14T05:27:02;10.20;;;9.20;;
44606;SDS011;30315;46.072;14.474;2022-08-14T05:29:29;9.50;;;8.70;;
44606;SDS011;30315;46.072;14.474;2022-08-14T05:31:57;10.43;;;9.52;;
44606;SDS011;30315;46.072;14.474;2022-08-14T05:36:57;9.77;;;8.90;;
44606;SDS011;30315;46.072;14.474;2022-08-14T05:39:28;11.15;;;8.98;;
44606;SDS011;30315;46.072;14.474;2022-08-14T05:41:56;10.02;;;9.23;;
44606;SDS011;30315;46.072;14.474;2022-08-14T05:44:26;9.27;;;8.55;;
44606;SDS011;30315;46.072;14.474;2022-08-14T05:46:56;8.65;;;7.80;;
44606;SDS011;30315;46.072;14.474;2022-08-14T05:49:24;9.02;;;8.13;;
44606;SDS011;30315;46.072;14.474;2022-08-14T05:51:59;9.93;;;8.65;;
44606;SDS011;30315;46.072;14.474;2022-08-14T05:54:28;9.13;;;8.32;;
44606;SDS011;30315;46.072;14.474;2022-08-14T05:57:02;9.25;;;8.43;;
44606;SDS011;30315;46.072;14.474;2022-08-14T05:59:31;8.95;;;8.10;;
44606;SDS011;30315;46.072;14.474;2022-08-14T06:02:05;8.50;;;7.80;;
44606;SDS011;30315;46.072;14.474;2022-08-14T06:04:39;9.55;;;8.65;;
44606;SDS011;30315;46.072;14.474;2022-08-14T06:07:14;8.25;;;7.55;;
44606;SDS011;30315;46.072;14.474;2022-08-14T06:09:42;9.00;;;8.20;;
44606;SDS011;30315;46.072;14.474;2022-08-14T06:12:16;8.57;;;7.80;;
44606;SDS011;30315;46.072;14.474;2022-08-14T06:15:04;10.30;;;8.63;;
44606;SDS011;30315;46.072;14.474;2022-08-14T06:17:46;8.90;;;8.00;;
44606;SDS011;30315;46.072;14.474;2022-08-14T06:20:24;9.63;;;8.57;;
44606;SDS011;30315;46.072;14.474;2022-08-14T06:22:53;9.17;;;8.37;;
44606;SDS011;30315;46.072;14.474;2022-08-14T06:25:22;10.15;;;9.18;;
44606;SDS011;30315;46.072;14.474;2022-08-14T06:27:50;10.93;;;9.00;;
44606;SDS011;30315;46.072;14.474;2022-08-14T06:30:21;9.73;;;8.93;;
44606;SDS011;30315;46.072;14.474;2022-08-14T06:33:10;10.18;;;9.18;;
44606;SDS011;30315;46.072;14.474;2022-08-14T06:35:41;10.48;;;9.55;;
44606;SDS011;30315;46.072;14.474;2022-08-14T06:38:12;9.52;;;8.73;;
44606;SDS011;30315;46.072;14.474;2022-08-14T06:40:47;10.82;;;9.90;;
44606;SDS011;30315;46.072;14.474;2022-08-14T06:43:21;10.23;;;9.23;;
44606;SDS011;30315;46.072;14.474;2022-08-14T06:45:55;10.20;;;9.20;;
44606;SDS011;30315;46.072;14.474;2022-08-14T06:48:23;11.18;;;10.07;;
44606;SDS011;30315;46.072;14.474;2022-08-14T06:50:51;10.73;;;9.82;;
44606;SDS011;30315;46.072;14.474;2022-08-14T06:53:19;11.27;;;10.27;;
44606;SDS011;30315;46.072;14.474;2022-08-14T06:55:53;11.65;;;10.38;;
44606;SDS011;30315;46.072;14.474;2022-08-14T06:58:26;10.40;;;9.60;;
44606;SDS011;30315;46.072;14.474;2022-08-14T07:00:57;11.40;;;10.40;;
44606;SDS011;30315;46.072;14.474;2022-08-14T07:03:52;11.77;;;10.77;;
44606;SDS011;30315;46.072;14.474;2022-08-14T07:06:48;10.82;;;9.65;;
44606;SDS011;30315;46.072;14.474;2022-08-14T07:09:17;10.88;;;10.07;;
44606;SDS011;30315;46.072;14.474;2022-08-14T07:11:49;11.57;;;10.48;;
44606;SDS011;30315;46.072;14.474;2022-08-14T07:14:17;11.70;;;10.52;;
44606;SDS011;30315;46.072;14.474;2022-08-14T07:16:43;10.82;;;9.93;;
44606;SDS011;30315;46.072;14.474;2022-08-14T07:19:10;13.35;;;11.57;;
44606;SDS011;30315;46.072;14.474;2022-08-14T07:21:37;11.55;;;10.45;;
44606;SDS011;30315;46.072;14.474;2022-08-14T07:24:05;10.07;;;9.32;;
44606;SDS011;30315;46.072;14.474;2022-08-14T07:26:47;11.77;;;10.65;;
44606;SDS011;30315;46.072;14.474;2022-08-14T07:29:14;11.50;;;10.40;;
44606;SDS011;30315;46.072;14.474;2022-08-14T07:31:48;12.40;;;11.30;;
44606;SDS011;30315;46.072;14.474;2022-08-14T07:34:14;12.43;;;11.30;;
44606;SDS011;30315;46.072;14.474;2022-08-14T07:37:02;12.95;;;11.75;;
44606;SDS011;30315;46.072;14.474;2022-08-14T07:39:29;12.77;;;11.68;;
44606;SDS011;30315;46.072;14.474;2022-08-14T07:41:59;11.10;;;10.07;;
44606;SDS011;30315;46.072;14.474;2022-08-14T07:44:27;12.27;;;11.18;;
44606;SDS011;30315;46.072;14.474;2022-08-14T07:47:11;12.57;;;11.40;;
44606;SDS011;30315;46.072;14.474;2022-08-14T07:49:38;12.55;;;11.40;;
44606;SDS011;30315;46.072;14.474;2022-08-14T07:52:08;12.82;;;11.73;;
44606;SDS011;30315;46.072;14.474;2022-08-14T07:54:39;11.00;;;10.10;;
44606;SDS011;30315;46.072;14.474;2022-08-14T07:57:08;10.30;;;9.50;;
44606;SDS011;30315;46.072;14.474;2022-08-14T07:59:38;12.43;;;11.23;;
44606;SDS011;30315;46.072;14.474;2022-08-14T08:02:10;11.00;;;10.07;;
44606;SDS011;30315;46.072;14.474;2022-08-14T08:04:47;10.75;;;9.73;;
44606;SDS011;30315;46.072;14.474;2022-08-14T08:07:21;9.77;;;9.02;;
44606;SDS011;30315;46.072;14.474;2022-08-14T08:09:55;8.40;;;7.80;;
44606;SDS011;30315;46.072;14.474;2022-08-14T08:12:25;8.95;;;8.10;;
44606;SDS011;30315;46.072;14.474;2022-08-14T08:14:56;8.23;;;7.53;;
44606;SDS011;30315;46.072;14.474;2022-08-14T08:17:33;7.32;;;6.63;;
44606;SDS011;30315;46.072;14.474;2022-08-14T08:20:05;7.30;;;6.57;;
44606;SDS011;30315;46.072;14.474;2022-08-14T08:22:37;7.45;;;6.85;;
44606;SDS011;30315;46.072;14.474;2022-08-14T08:25:15;7.00;;;6.50;;
44606;SDS011;30315;46.072;14.474;2022-08-14T08:27:57;7.22;;;6.72;;
44606;SDS011;30315;46.072;14.474;2022-08-14T08:30:34;7.82;;;7.10;;
44606;SDS011;30315;46.072;14.474;2022-08-14T08:33:15;8.00;;;7.30;;
44606;SDS011;30315;46.072;14.474;2022-08-14T08:35:44;6.90;;;6.30;;
44606;SDS011;30315;46.072;14.474;2022-08-14T08:38:21;7.28;;;6.57;;
44606;SDS011;30315;46.072;14.474;2022-08-14T08:41:09;6.72;;;6.22;;
44606;SDS011;30315;46.072;14.474;2022-08-14T08:43:37;7.43;;;6.82;;
44606;SDS011;30315;46.072;14.474;2022-08-14T08:46:13;7.00;;;6.40;;
44606;SDS011;30315;46.072;14.474;2022-08-14T08:51:28;6.68;;;6.28;;
44606;SDS011;30315;46.072;14.474;2022-08-14T08:59:17;5.13;;;4.72;;
44606;SDS011;30315;46.072;14.474;2022-08-14T09:01:47;4.20;;;4.00;;
44606;SDS011;30315;46.072;14.474;2022-08-14T09:04:26;4.72;;;4.43;;
44606;SDS011;30315;46.072;14.474;2022-08-14T09:06:55;4.88;;;4.57;;
44606;SDS011;30315;46.072;14.474;2022-08-14T09:09:36;4.97;;;4.57;;
44606;SDS011;30315;46.072;14.474;2022-08-14T09:12:26;5.18;;;4.88;;
44606;SDS011;30315;46.072;14.474;2022-08-14T09:15:05;4.85;;;4.43;;
44606;SDS011;30315;46.072;14.474;2022-08-14T09:17:38;3.70;;;3.50;;
44606;SDS011;30315;46.072;14.474;2022-08-14T09:20:08;3.70;;;3.40;;
44606;SDS011;30315;46.072;14.474;2022-08-14T09:22:38;4.60;;;4.30;;
44606;SDS011;30315;46.072;14.474;2022-08-14T09:25:13;3.80;;;3.60;;
44606;SDS011;30315;46.072;14.474;2022-08-14T09:27:41;3.78;;;3.30;;
44606;SDS011;30315;46.072;14.474;2022-08-14T09:30:08;3.80;;;3.35;;
44606;SDS011;30315;46.072;14.474;2022-08-14T09:47:17;4.30;;;3.95;;
44606;SDS011;30315;46.072;14.474;2022-08-14T09:49:44;3.13;;;2.92;;
44606;SDS011;30315;46.072;14.474;2022-08-14T09:52:18;3.42;;;3.22;;
44606;SDS011;30315;46.072;14.474;2022-08-14T09:54:59;3.53;;;3.25;;
44606;SDS011;30315;46.072;14.474;2022-08-14T09:57:29;3.67;;;3.47;;
44606;SDS011;30315;46.072;14.474;2022-08-14T09:59:57;6.80;;;3.47;;
44606;SDS011;30315;46.072;14.474;2022-08-14T10:02:55;3.22;;;3.03;;
44606;SDS011;30315;46.072;14.474;2022-08-14T10:05:33;2.85;;;2.65;;
44606;SDS011;30315;46.072;14.474;2022-08-14T10:08:15;3.13;;;2.97;;
44606;SDS011;30315;46.072;14.474;2022-08-14T10:10:52;3.15;;;2.83;;
44606;SDS011;30315;46.072;14.474;2022-08-14T10:13:28;3.40;;;2.72;;
44606;SDS011;30315;46.072;14.474;2022-08-14T10:16:15;2.63;;;2.50;;
44606;SDS011;30315;46.072;14.474;2022-08-14T10:19:08;3.00;;;2.80;;
44606;SDS011;30315;46.072;14.474;2022-08-14T10:21:37;2.97;;;2.77;;
44606;SDS011;30315;46.072;14.474;2022-08-14T10:24:25;2.63;;;2.53;;
44606;SDS011;30315;46.072;14.474;2022-08-14T10:27:03;3.03;;;2.73;;
44606;SDS011;30315;46.072;14.474;2022-08-14T10:29:35;2.85;;;2.67;;
44606;SDS011;30315;46.072;14.474;2022-08-14T10:32:05;3.25;;;3.08;;
44606;SDS011;30315;46.072;14.474;2022-08-14T10:34:43;6.85;;;6.45;;
44606;SDS011;30315;46.072;14.474;2022-08-14T10:37:18;3.40;;;3.20;;
44606;SDS011;30315;46.072;14.474;2022-08-14T10:40:00;2.70;;;2.60;;
44606;SDS011;30315;46.072;14.474;2022-08-14T10:42:37;2.72;;;2.53;;
44606;SDS011;30315;46.072;14.474;2022-08-14T10:45:16;3.10;;;2.90;;
44606;SDS011;30315;46.072;14.474;2022-08-14T10:48:24;2.90;;;2.70;;
44606;SDS011;30315;46.072;14.474;2022-08-14T10:51:04;3.15;;;2.65;;
44606;SDS011;30315;46.072;14.474;2022-08-14T10:53:34;2.72;;;2.63;;
44606;SDS011;30315;46.072;14.474;2022-08-14T10:56:09;2.90;;;2.70;;
44606;SDS011;30315;46.072;14.474;2022-08-14T10:59:04;3.30;;;3.10;;
44606;SDS011;30315;46.072;14.474;2022-08-14T11:01:34;2.90;;;2.58;;
44606;SDS011;30315;46.072;14.474;2022-08-14T11:04:18;2.70;;;2.60;;
44606;SDS011;30315;46.072;14.474;2022-08-14T11:06:53;2.50;;;2.40;;
44606;SDS011;30315;46.072;14.474;2022-08-14T11:09:22;2.80;;;2.70;;
44606;SDS011;30315;46.072;14.474;2022-08-14T11:11:55;2.90;;;2.70;;
44606;SDS011;30315;46.072;14.474;2022-08-14T11:14:49;4.35;;;4.05;;
44606;SDS011;30315;46.072;14.474;2022-08-14T11:17:27;3.80;;;3.60;;
44606;SDS011;30315;46.072;14.474;2022-08-14T11:19:58;4.00;;;2.35;;
44606;SDS011;30315;46.072;14.474;2022-08-14T11:22:28;2.80;;;2.60;;
44606;SDS011;30315;46.072;14.474;2022-08-14T11:25:19;5.18;;;4.60;;
44606;SDS011;30315;46.072;14.474;2022-08-14T11:27:53;3.08;;;2.88;;
44606;SDS011;30315;46.072;14.474;2022-08-14T11:30:22;3.28;;;2.90;;
44606;SDS011;30315;46.072;14.474;2022-08-14T11:33:11;2.78;;;2.58;;
44606;SDS011;30315;46.072;14.474;2022-08-14T11:35:38;2.70;;;2.50;;
44606;SDS011;30315;46.072;14.474;2022-08-14T11:38:13;2.80;;;2.60;;
44606;SDS011;30315;46.072;14.474;2022-08-14T11:40:43;3.05;;;2.85;;
44606;SDS011;30315;46.072;14.474;2022-08-14T11:43:12;2.92;;;2.72;;
44606;SDS011;30315;46.072;14.474;2022-08-14T11:45:43;2.53;;;2.42;;
44606;SDS011;30315;46.072;14.474;2022-08-14T11:51:12;3.08;;;2.88;;
44606;SDS011;30315;46.072;14.474;2022-08-14T11:53:41;3.17;;;2.97;;
44606;SDS011;30315;46.072;14.474;2022-08-14T11:56:15;2.72;;;2.58;;
44606;SDS011;30315;46.072;14.474;2022-08-14T11:58:42;3.05;;;2.85;;
44606;SDS011;30315;46.072;14.474;2022-08-14T12:01:16;2.80;;;2.60;;
44606;SDS011;30315;46.072;14.474;2022-08-14T12:03:52;2.80;;;2.60;;
44606;SDS011;30315;46.072;14.474;2022-08-14T12:06:24;2.65;;;2.55;;
44606;SDS011;30315;46.072;14.474;2022-08-14T12:09:01;2.95;;;2.80;;
44606;SDS011;30315;46.072;14.474;2022-08-14T12:11:38;2.70;;;2.38;;
44606;SDS011;30315;46.072;14.474;2022-08-14T12:14:12;2.50;;;2.40;;
44606;SDS011;30315;46.072;14.474;2022-08-14T12:17:04;2.47;;;2.22;;
44606;SDS011;30315;46.072;14.474;2022-08-14T12:19:57;6.03;;;2.43;;
44606;SDS011;30315;46.072;14.474;2022-08-14T12:22:39;2.47;;;2.38;;
44606;SDS011;30315;46.072;14.474;2022-08-14T12:25:10;2.50;;;2.40;;
44606;SDS011;30315;46.072;14.474;2022-08-14T12:27:46;2.47;;;2.38;;
44606;SDS011;30315;46.072;14.474;2022-08-14T12:33:28;2.70;;;2.55;;
44606;SDS011;30315;46.072;14.474;2022-08-14T12:35:59;2.28;;;2.17;;
44606;SDS011;30315;46.072;14.474;2022-08-14T12:38:35;2.47;;;2.28;;
44606;SDS011;30315;46.072;14.474;2022-08-14T12:41:08;2.53;;;2.33;;
44606;SDS011;30315;46.072;14.474;2022-08-14T12:43:55;2.40;;;2.30;;
44606;SDS011;30315;46.072;14.474;2022-08-14T12:46:26;2.67;;;2.55;;
44606;SDS011;30315;46.072;14.474;2022-08-14T12:49:01;2.58;;;2.47;;
44606;SDS011;30315;46.072;14.474;2022-08-14T12:51:34;2.38;;;2.28;;
44606;SDS011;30315;46.072;14.474;2022-08-14T12:54:11;2.38;;;2.20;;
44606;SDS011;30315;46.072;14.474;2022-08-14T12:57:07;2.15;;;2.05;;
44606;SDS011;30315;46.072;14.474;2022-08-14T12:59:45;2.35;;;2.25;;
44606;SDS011;30315;46.072;14.474;2022-08-14T13:04:52;2.38;;;2.28;;
44606;SDS011;30315;46.072;14.474;2022-08-14T13:07:21;2.28;;;2.08;;
44606;SDS011;30315;46.072;14.474;2022-08-14T13:09:54;2.33;;;2.22;;
44606;SDS011;30315;46.072;14.474;2022-08-14T13:12:24;2.00;;;1.90;;
44606;SDS011;30315;46.072;14.474;2022-08-14T13:15:00;2.20;;;2.10;;
44606;SDS011;30315;46.072;14.474;2022-08-14T13:17:39;2.33;;;2.22;;
44606;SDS011;30315;46.072;14.474;2022-08-14T13:20:20;2.20;;;2.10;;
44606;SDS011;30315;46.072;14.474;2022-08-14T13:22:52;2.08;;;1.98;;
44606;SDS011;30315;46.072;14.474;2022-08-14T13:25:23;2.10;;;1.90;;
44606;SDS011;30315;46.072;14.474;2022-08-14T13:27:56;1.88;;;1.77;;
44606;SDS011;30315;46.072;14.474;2022-08-14T13:30:25;2.25;;;2.15;;
44606;SDS011;30315;46.072;14.474;2022-08-14T13:32:53;2.00;;;1.90;;
44606;SDS011;30315;46.072;14.474;2022-08-14T13:35:23;2.53;;;2.10;;
44606;SDS011;30315;46.072;14.474;2022-08-14T13:37:50;2.05;;;1.95;;
44606;SDS011;30315;46.072;14.474;2022-08-14T13:40:20;2.00;;;1.90;;
44606;SDS011;30315;46.072;14.474;2022-08-14T13:42:52;2.58;;;2.22;;
44606;SDS011;30315;46.072;14.474;2022-08-14T13:45:22;2.65;;;2.08;;
44606;SDS011;30315;46.072;14.474;2022-08-14T13:48:11;3.28;;;1.67;;
44606;SDS011;30315;46.072;14.474;2022-08-14T13:50:58;2.08;;;1.80;;
44606;SDS011;30315;46.072;14.474;2022-08-14T13:53:29;1.88;;;1.77;;
44606;SDS011;30315;46.072;14.474;2022-08-14T13:56:03;1.77;;;1.67;;
44606;SDS011;30315;46.072;14.474;2022-08-14T13:58:32;2.33;;;2.13;;
44606;SDS011;30315;46.072;14.474;2022-08-14T14:01:01;1.90;;;1.80;;
44606;SDS011;30315;46.072;14.474;2022-08-14T14:03:29;2.00;;;1.90;;
44606;SDS011;30315;46.072;14.474;2022-08-14T14:06:01;1.90;;;1.80;;
44606;SDS011;30315;46.072;14.474;2022-08-14T14:08:28;1.80;;;1.70;;
44606;SDS011;30315;46.072;14.474;2022-08-14T14:11:14;2.00;;;1.90;;
44606;SDS011;30315;46.072;14.474;2022-08-14T14:13:44;1.80;;;1.70;;
44606;SDS011;30315;46.072;14.474;2022-08-14T14:16:12;1.75;;;1.65;;
44606;SDS011;30315;46.072;14.474;2022-08-14T14:18:56;2.45;;;1.60;;
44606;SDS011;30315;46.072;14.474;2022-08-14T14:21:35;2.67;;;1.80;;
44606;SDS011;30315;46.072;14.474;2022-08-14T14:24:05;1.80;;;1.50;;
44606;SDS011;30315;46.072;14.474;2022-08-14T14:26:42;1.90;;;1.70;;
44606;SDS011;30315;46.072;14.474;2022-08-14T14:29:16;1.70;;;1.60;;
44606;SDS011;30315;46.072;14.474;2022-08-14T14:31:51;1.75;;;1.65;;
44606;SDS011;30315;46.072;14.474;2022-08-14T14:34:20;1.40;;;1.40;;
44606;SDS011;30315;46.072;14.474;2022-08-14T14:36:55;1.83;;;1.67;;
44606;SDS011;30315;46.072;14.474;2022-08-14T14:39:27;1.70;;;1.60;;
44606;SDS011;30315;46.072;14.474;2022-08-14T14:41:55;2.53;;;1.80;;
44606;SDS011;30315;46.072;14.474;2022-08-14T14:44:33;1.55;;;1.55;;
44606;SDS011;30315;46.072;14.474;2022-08-14T14:47:09;1.50;;;1.50;;
44606;SDS011;30315;46.072;14.474;2022-08-14T14:49:42;1.73;;;1.73;;
44606;SDS011;30315;46.072;14.474;2022-08-14T14:52:21;2.10;;;2.00;;
44606;SDS011;30315;46.072;14.474;2022-08-14T14:54:55;2.05;;;1.88;;
44606;SDS011;30315;46.072;14.474;2022-08-14T14:57:24;1.90;;;1.80;;
44606;SDS011;30315;46.072;14.474;2022-08-14T15:00:03;1.63;;;1.52;;
44606;SDS011;30315;46.072;14.474;2022-08-14T15:02:35;1.63;;;1.52;;
44606;SDS011;30315;46.072;14.474;2022-08-14T15:05:04;1.70;;;1.60;;
44606;SDS011;30315;46.072;14.474;2022-08-14T15:07:36;1.50;;;1.48;;
44606;SDS011;30315;46.072;14.474;2022-08-14T15:10:04;4.55;;;2.03;;
44606;SDS011;30315;46.072;14.474;2022-08-14T15:17:49;1.70;;;1.60;;
44606;SDS011;30315;46.072;14.474;2022-08-14T15:20:20;1.77;;;1.67;;
44606;SDS011;30315;46.072;14.474;2022-08-14T15:22:59;1.58;;;1.48;;
44606;SDS011;30315;46.072;14.474;2022-08-14T15:25:38;1.80;;;1.80;;
44606;SDS011;30315;46.072;14.474;2022-08-14T15:28:06;1.98;;;1.70;;
44606;SDS011;30315;46.072;14.474;2022-08-14T15:30:42;1.50;;;1.40;;
44606;SDS011;30315;46.072;14.474;2022-08-14T15:33:16;1.67;;;1.58;;
44606;SDS011;30315;46.072;14.474;2022-08-14T15:36:23;1.58;;;1.50;;
44606;SDS011;30315;46.072;14.474;2022-08-14T15:38:55;1.75;;;1.65;;
44606;SDS011;30315;46.072;14.474;2022-08-14T15:41:23;1.58;;;1.48;;
44606;SDS011;30315;46.072;14.474;2022-08-14T15:43:50;1.95;;;1.85;;
44606;SDS011;30315;46.072;14.474;2022-08-14T15:46:21;1.77;;;1.67;;
44606;SDS011;30315;46.072;14.474;2022-08-14T15:49:08;1.67;;;1.58;;
44606;SDS011;30315;46.072;14.474;2022-08-14T15:51:36;2.42;;;1.50;;
44606;SDS011;30315;46.072;14.474;2022-08-14T15:54:08;1.67;;;1.58;;
44606;SDS011;30315;46.072;14.474;2022-08-14T15:56:36;1.92;;;1.30;;
44606;SDS011;30315;46.072;14.474;2022-08-14T15:59:08;1.65;;;1.40;;
44606;SDS011;30315;46.072;14.474;2022-08-14T16:01:38;1.45;;;1.35;;
44606;SDS011;30315;46.072;14.474;2022-08-14T16:04:19;1.25;;;1.25;;